sensor_id;sensor_type;location;lat;lon;timestamp;P1;durP1;ratioP1;P2;durP2;ratioP2
77012;SDS011;67260;53.130;17.982;2023-11-21T00:01:58;13.90;;;8.40;;
77012;SDS011;67260;53.130;17.982;2023-11-21T00:04:25;16.10;;;8.40;;
77012;SDS011;67260;53.130;17.982;2023-11-21T00:09:43;13.80;;;8.10;;
77012;SDS011;67260;53.130;17.982;2023-11-21T00:12:10;14.80;;;8.10;;
77012;SDS011;67260;53.130;17.982;2023-11-21T00:34:30;10.50;;;6.20;;
77012;SDS011;67260;53.130;17.982;2023-11-21T00:39:52;11.10;;;6.00;;
77012;SDS011;67260;53.130;17.982;2023-11-21T00:42:18;11.50;;;6.40;;
77012;SDS011;67260;53.130;17.982;2023-11-21T00:44:51;10.90;;;6.70;;
77012;SDS011;67260;53.130;17.982;2023-11-21T00:49:45;13.30;;;7.10;;
77012;SDS011;67260;53.130;17.982;2023-11-21T00:55:25;10.70;;;6.40;;
77012;SDS011;67260;53.130;17.982;2023-11-21T01:03:35;8.90;;;5.80;;
77012;SDS011;67260;53.130;17.982;2023-11-21T01:06:02;10.90;;;6.10;;
77012;SDS011;67260;53.130;17.982;2023-11-21T01:08:49;10.40;;;6.20;;
77012;SDS011;67260;53.130;17.982;2023-11-21T01:13:43;10.00;;;6.00;;
77012;SDS011;67260;53.130;17.982;2023-11-21T01:16:12;11.20;;;6.70;;
77012;SDS011;67260;53.130;17.982;2023-11-21T01:21:15;10.40;;;6.10;;
77012;SDS011;67260;53.130;17.982;2023-11-21T01:26:08;12.30;;;6.40;;
77012;SDS011;67260;53.130;17.982;2023-11-21T01:28:37;9.80;;;5.90;;
77012;SDS011;67260;53.130;17.982;2023-11-21T01:31:03;11.40;;;6.20;;
77012;SDS011;67260;53.130;17.982;2023-11-21T01:33:30;10.20;;;6.00;;
77012;SDS011;67260;53.130;17.982;2023-11-21T01:35:58;12.50;;;6.70;;
77012;SDS011;67260;53.130;17.982;2023-11-21T01:38:31;9.80;;;5.30;;
77012;SDS011;67260;53.130;17.982;2023-11-21T01:41:43;12.40;;;7.20;;
77012;SDS011;67260;53.130;17.982;2023-11-21T01:44:18;13.00;;;7.20;;
77012;SDS011;67260;53.130;17.982;2023-11-21T01:46:50;12.80;;;7.30;;
77012;SDS011;67260;53.130;17.982;2023-11-21T01:52:00;11.00;;;6.60;;
77012;SDS011;67260;53.130;17.982;2023-11-21T01:54:30;15.30;;;8.70;;
77012;SDS011;67260;53.130;17.982;2023-11-21T01:57:00;11.30;;;7.00;;
77012;SDS011;67260;53.130;17.982;2023-11-21T01:59:32;12.30;;;7.20;;
77012;SDS011;67260;53.130;17.982;2023-11-21T02:02:01;11.80;;;7.60;;
77012;SDS011;67260;53.130;17.982;2023-11-21T02:04:28;11.30;;;7.10;;
77012;SDS011;67260;53.130;17.982;2023-11-21T02:07:20;12.00;;;7.00;;
77012;SDS011;67260;53.130;17.982;2023-11-21T02:09:49;13.30;;;7.50;;
77012;SDS011;67260;53.130;17.982;2023-11-21T02:12:31;12.40;;;7.00;;
77012;SDS011;67260;53.130;17.982;2023-11-21T02:17:24;12.00;;;7.00;;
77012;SDS011;67260;53.130;17.982;2023-11-21T02:20:05;14.30;;;7.60;;
77012;SDS011;67260;53.130;17.982;2023-11-21T02:22:33;12.70;;;7.20;;
77012;SDS011;67260;53.130;17.982;2023-11-21T02:25:05;13.40;;;7.80;;
77012;SDS011;67260;53.130;17.982;2023-11-21T02:27:34;14.10;;;7.60;;
77012;SDS011;67260;53.130;17.982;2023-11-21T02:37:00;12.60;;;6.90;;
77012;SDS011;67260;53.130;17.982;2023-11-21T02:39:27;12.40;;;7.40;;
77012;SDS011;67260;53.130;17.982;2023-11-21T02:45:06;13.70;;;7.80;;
77012;SDS011;67260;53.130;17.982;2023-11-21T02:47:34;13.40;;;7.30;;
77012;SDS011;67260;53.130;17.982;2023-11-21T02:50:01;15.10;;;8.20;;
77012;SDS011;67260;53.130;17.982;2023-11-21T02:52:32;14.30;;;8.20;;
77012;SDS011;67260;53.130;17.982;2023-11-21T02:54:59;14.00;;;8.00;;
77012;SDS011;67260;53.130;17.982;2023-11-21T02:57:26;16.60;;;8.70;;
77012;SDS011;67260;53.130;17.982;2023-11-21T02:59:53;15.60;;;8.00;;
77012;SDS011;67260;53.130;17.982;2023-11-21T03:02:20;16.00;;;8.40;;
77012;SDS011;67260;53.130;17.982;2023-11-21T03:07:16;16.50;;;7.80;;
77012;SDS011;67260;53.130;17.982;2023-11-21T03:09:48;14.30;;;7.80;;
77012;SDS011;67260;53.130;17.982;2023-11-21T03:12:20;12.80;;;7.20;;
77012;SDS011;67260;53.130;17.982;2023-11-21T03:15:01;14.40;;;7.90;;
77012;SDS011;67260;53.130;17.982;2023-11-21T03:20:48;14.20;;;8.40;;
77012;SDS011;67260;53.130;17.982;2023-11-21T03:23:15;15.50;;;8.60;;
77012;SDS011;67260;53.130;17.982;2023-11-21T03:25:42;18.60;;;8.70;;
77012;SDS011;67260;53.130;17.982;2023-11-21T03:28:09;16.50;;;8.00;;
77012;SDS011;67260;53.130;17.982;2023-11-21T03:30:37;15.60;;;8.50;;
77012;SDS011;67260;53.130;17.982;2023-11-21T03:33:04;18.80;;;9.90;;
77012;SDS011;67260;53.130;17.982;2023-11-21T03:35:30;20.50;;;9.20;;
77012;SDS011;67260;53.130;17.982;2023-11-21T03:37:57;17.50;;;9.20;;
77012;SDS011;67260;53.130;17.982;2023-11-21T03:40:25;15.80;;;8.60;;
77012;SDS011;67260;53.130;17.982;2023-11-21T03:42:51;19.00;;;9.90;;
77012;SDS011;67260;53.130;17.982;2023-11-21T03:45:20;18.50;;;9.40;;
77012;SDS011;67260;53.130;17.982;2023-11-21T03:47:48;18.80;;;9.20;;
77012;SDS011;67260;53.130;17.982;2023-11-21T03:50:15;18.50;;;9.50;;
77012;SDS011;67260;53.130;17.982;2023-11-21T03:52:43;18.60;;;9.00;;
77012;SDS011;67260;53.130;17.982;2023-11-21T03:55:10;20.10;;;9.20;;
77012;SDS011;67260;53.130;17.982;2023-11-21T03:57:37;18.00;;;9.20;;
77012;SDS011;67260;53.130;17.982;2023-11-21T04:00:04;17.80;;;9.20;;
77012;SDS011;67260;53.130;17.982;2023-11-21T04:02:38;18.40;;;9.10;;
77012;SDS011;67260;53.130;17.982;2023-11-21T04:05:05;18.30;;;9.00;;
77012;SDS011;67260;53.130;17.982;2023-11-21T04:07:33;19.70;;;10.10;;
77012;SDS011;67260;53.130;17.982;2023-11-21T04:10:00;21.40;;;9.40;;
77012;SDS011;67260;53.130;17.982;2023-11-21T04:12:30;18.70;;;9.60;;
77012;SDS011;67260;53.130;17.982;2023-11-21T04:14:57;20.80;;;9.60;;
77012;SDS011;67260;53.130;17.982;2023-11-21T04:20:15;19.40;;;9.40;;
77012;SDS011;67260;53.130;17.982;2023-11-21T04:22:43;19.20;;;10.10;;
77012;SDS011;67260;53.130;17.982;2023-11-21T04:25:11;19.50;;;10.20;;
77012;SDS011;67260;53.130;17.982;2023-11-21T04:27:39;20.10;;;9.60;;
77012;SDS011;67260;53.130;17.982;2023-11-21T04:30:06;21.00;;;10.40;;
77012;SDS011;67260;53.130;17.982;2023-11-21T04:32:33;19.70;;;9.70;;
77012;SDS011;67260;53.130;17.982;2023-11-21T04:35:00;19.00;;;9.00;;
77012;SDS011;67260;53.130;17.982;2023-11-21T04:39:53;18.40;;;8.90;;
77012;SDS011;67260;53.130;17.982;2023-11-21T04:42:20;19.30;;;8.50;;
77012;SDS011;67260;53.130;17.982;2023-11-21T04:44:47;18.60;;;9.00;;
77012;SDS011;67260;53.130;17.982;2023-11-21T04:47:14;18.10;;;9.60;;
77012;SDS011;67260;53.130;17.982;2023-11-21T04:49:42;19.10;;;9.50;;
77012;SDS011;67260;53.130;17.982;2023-11-21T04:52:09;18.00;;;9.10;;
77012;SDS011;67260;53.130;17.982;2023-11-21T04:54:37;20.10;;;10.10;;
77012;SDS011;67260;53.130;17.982;2023-11-21T04:57:03;18.20;;;8.80;;
77012;SDS011;67260;53.130;17.982;2023-11-21T04:59:34;17.40;;;8.90;;
77012;SDS011;67260;53.130;17.982;2023-11-21T05:02:01;20.20;;;10.00;;
77012;SDS011;67260;53.130;17.982;2023-11-21T05:04:28;19.60;;;8.70;;
77012;SDS011;67260;53.130;17.982;2023-11-21T05:06:55;17.40;;;8.60;;
77012;SDS011;67260;53.130;17.982;2023-11-21T05:11:48;20.80;;;8.70;;
77012;SDS011;67260;53.130;17.982;2023-11-21T05:14:15;17.90;;;8.30;;
77012;SDS011;67260;53.130;17.982;2023-11-21T05:16:42;18.10;;;8.50;;
77012;SDS011;67260;53.130;17.982;2023-11-21T05:19:09;17.30;;;8.80;;
77012;SDS011;67260;53.130;17.982;2023-11-21T05:24:03;18.50;;;8.70;;
77012;SDS011;67260;53.130;17.982;2023-11-21T05:26:30;18.40;;;8.90;;
77012;SDS011;67260;53.130;17.982;2023-11-21T05:28:56;20.20;;;10.20;;
77012;SDS011;67260;53.130;17.982;2023-11-21T05:31:23;19.20;;;8.80;;
77012;SDS011;67260;53.130;17.982;2023-11-21T05:33:50;18.90;;;9.20;;
77012;SDS011;67260;53.130;17.982;2023-11-21T05:36:18;17.20;;;8.60;;
77012;SDS011;67260;53.130;17.982;2023-11-21T05:38:49;20.10;;;9.30;;
77012;SDS011;67260;53.130;17.982;2023-11-21T05:41:17;18.70;;;9.20;;
77012;SDS011;67260;53.130;17.982;2023-11-21T05:43:44;21.60;;;9.90;;
77012;SDS011;67260;53.130;17.982;2023-11-21T05:46:11;19.60;;;9.30;;
77012;SDS011;67260;53.130;17.982;2023-11-21T05:48:37;20.40;;;9.10;;
77012;SDS011;67260;53.130;17.982;2023-11-21T05:51:04;16.90;;;8.90;;
77012;SDS011;67260;53.130;17.982;2023-11-21T05:53:33;19.30;;;9.20;;
77012;SDS011;67260;53.130;17.982;2023-11-21T05:56:00;17.90;;;9.10;;
77012;SDS011;67260;53.130;17.982;2023-11-21T06:01:13;19.40;;;9.10;;
77012;SDS011;67260;53.130;17.982;2023-11-21T06:03:49;19.10;;;10.00;;
77012;SDS011;67260;53.130;17.982;2023-11-21T06:06:21;21.20;;;9.90;;
77012;SDS011;67260;53.130;17.982;2023-11-21T06:08:48;20.20;;;9.20;;
77012;SDS011;67260;53.130;17.982;2023-11-21T06:11:16;20.40;;;9.30;;
77012;SDS011;67260;53.130;17.982;2023-11-21T06:13:43;21.10;;;9.30;;
77012;SDS011;67260;53.130;17.982;2023-11-21T06:16:14;20.40;;;8.90;;
77012;SDS011;67260;53.130;17.982;2023-11-21T06:18:43;16.60;;;9.30;;
77012;SDS011;67260;53.130;17.982;2023-11-21T06:21:12;17.30;;;9.10;;
77012;SDS011;67260;53.130;17.982;2023-11-21T06:23:40;20.20;;;9.60;;
77012;SDS011;67260;53.130;17.982;2023-11-21T06:26:07;20.40;;;9.30;;
77012;SDS011;67260;53.130;17.982;2023-11-21T06:28:37;22.20;;;9.70;;
77012;SDS011;67260;53.130;17.982;2023-11-21T06:33:49;19.40;;;8.40;;
77012;SDS011;67260;53.130;17.982;2023-11-21T06:36:20;16.40;;;8.00;;
77012;SDS011;67260;53.130;17.982;2023-11-21T06:38:47;18.40;;;8.90;;
77012;SDS011;67260;53.130;17.982;2023-11-21T06:41:14;18.80;;;9.50;;
77012;SDS011;67260;53.130;17.982;2023-11-21T06:43:41;19.00;;;9.00;;
77012;SDS011;67260;53.130;17.982;2023-11-21T06:46:12;20.30;;;9.50;;
77012;SDS011;67260;53.130;17.982;2023-11-21T06:48:42;18.40;;;9.40;;
77012;SDS011;67260;53.130;17.982;2023-11-21T06:51:09;21.10;;;9.90;;
77012;SDS011;67260;53.130;17.982;2023-11-21T06:53:37;22.80;;;11.20;;
77012;SDS011;67260;53.130;17.982;2023-11-21T06:56:04;20.00;;;10.10;;
77012;SDS011;67260;53.130;17.982;2023-11-21T06:58:32;20.00;;;10.90;;
77012;SDS011;67260;53.130;17.982;2023-11-21T07:01:00;18.30;;;9.20;;
77012;SDS011;67260;53.130;17.982;2023-11-21T07:03:29;24.70;;;12.20;;
77012;SDS011;67260;53.130;17.982;2023-11-21T07:05:56;22.50;;;11.10;;
77012;SDS011;67260;53.130;17.982;2023-11-21T07:08:22;16.70;;;9.90;;
77012;SDS011;67260;53.130;17.982;2023-11-21T07:10:49;16.50;;;9.10;;
77012;SDS011;67260;53.130;17.982;2023-11-21T07:18:14;14.30;;;7.60;;
77012;SDS011;67260;53.130;17.982;2023-11-21T07:20:40;16.40;;;8.00;;
77012;SDS011;67260;53.130;17.982;2023-11-21T07:23:08;14.50;;;7.50;;
77012;SDS011;67260;53.130;17.982;2023-11-21T07:29:18;15.10;;;7.40;;
77012;SDS011;67260;53.130;17.982;2023-11-21T07:34:22;15.00;;;7.70;;
77012;SDS011;67260;53.130;17.982;2023-11-21T07:39:35;13.40;;;6.80;;
77012;SDS011;67260;53.130;17.982;2023-11-21T07:42:04;14.00;;;6.50;;
77012;SDS011;67260;53.130;17.982;2023-11-21T07:47:01;11.20;;;5.70;;
77012;SDS011;67260;53.130;17.982;2023-11-21T07:49:28;11.00;;;5.90;;
77012;SDS011;67260;53.130;17.982;2023-11-21T07:51:55;10.20;;;5.10;;
77012;SDS011;67260;53.130;17.982;2023-11-21T07:54:22;13.50;;;6.50;;
77012;SDS011;67260;53.130;17.982;2023-11-21T07:56:50;14.30;;;6.60;;
77012;SDS011;67260;53.130;17.982;2023-11-21T07:59:20;11.50;;;5.20;;
77012;SDS011;67260;53.130;17.982;2023-11-21T08:04:48;13.50;;;6.30;;
77012;SDS011;67260;53.130;17.982;2023-11-21T08:07:16;12.30;;;6.00;;
77012;SDS011;67260;53.130;17.982;2023-11-21T08:09:44;13.50;;;6.60;;
77012;SDS011;67260;53.130;17.982;2023-11-21T08:12:15;13.80;;;7.20;;
77012;SDS011;67260;53.130;17.982;2023-11-21T08:14:43;16.00;;;7.80;;
77012;SDS011;67260;53.130;17.982;2023-11-21T08:17:13;15.00;;;7.30;;
77012;SDS011;67260;53.130;17.982;2023-11-21T08:19:41;14.30;;;6.50;;
77012;SDS011;67260;53.130;17.982;2023-11-21T08:22:08;11.90;;;5.90;;
77012;SDS011;67260;53.130;17.982;2023-11-21T08:27:59;13.90;;;6.70;;
77012;SDS011;67260;53.130;17.982;2023-11-21T08:33:36;14.00;;;6.00;;
77012;SDS011;67260;53.130;17.982;2023-11-21T08:36:08;14.90;;;6.80;;
77012;SDS011;67260;53.130;17.982;2023-11-21T08:45:10;14.10;;;6.00;;
77012;SDS011;67260;53.130;17.982;2023-11-21T08:47:39;16.30;;;7.70;;
77012;SDS011;67260;53.130;17.982;2023-11-21T08:50:11;14.40;;;5.60;;
77012;SDS011;67260;53.130;17.982;2023-11-21T08:52:39;16.50;;;7.60;;
77012;SDS011;67260;53.130;17.982;2023-11-21T08:55:07;20.90;;;8.60;;
77012;SDS011;67260;53.130;17.982;2023-11-21T08:57:36;22.20;;;11.40;;
77012;SDS011;67260;53.130;17.982;2023-11-21T09:02:45;13.80;;;7.50;;
77012;SDS011;67260;53.130;17.982;2023-11-21T09:11:08;16.80;;;7.90;;
77012;SDS011;67260;53.130;17.982;2023-11-21T09:13:34;32.40;;;13.90;;
77012;SDS011;67260;53.130;17.982;2023-11-21T09:16:02;19.60;;;9.30;;
77012;SDS011;67260;53.130;17.982;2023-11-21T09:18:42;14.60;;;7.80;;
77012;SDS011;67260;53.130;17.982;2023-11-21T09:21:12;68.30;;;19.80;;
77012;SDS011;67260;53.130;17.982;2023-11-21T09:23:39;35.80;;;13.70;;
77012;SDS011;67260;53.130;17.982;2023-11-21T09:26:06;24.40;;;10.70;;
77012;SDS011;67260;53.130;17.982;2023-11-21T09:34:09;20.80;;;8.40;;
77012;SDS011;67260;53.130;17.982;2023-11-21T09:36:37;41.20;;;14.90;;
77012;SDS011;67260;53.130;17.982;2023-11-21T09:39:05;32.40;;;11.30;;
77012;SDS011;67260;53.130;17.982;2023-11-21T09:41:51;36.10;;;11.60;;
77012;SDS011;67260;53.130;17.982;2023-11-21T09:44:44;54.60;;;21.90;;
77012;SDS011;67260;53.130;17.982;2023-11-21T09:47:15;27.30;;;11.20;;
77012;SDS011;67260;53.130;17.982;2023-11-21T09:49:44;30.20;;;12.50;;
77012;SDS011;67260;53.130;17.982;2023-11-21T09:52:18;16.20;;;7.30;;
77012;SDS011;67260;53.130;17.982;2023-11-21T09:54:55;24.60;;;10.60;;
77012;SDS011;67260;53.130;17.982;2023-11-21T09:57:27;18.00;;;7.60;;
77012;SDS011;67260;53.130;17.982;2023-11-21T09:59:55;22.30;;;10.50;;
77012;SDS011;67260;53.130;17.982;2023-11-21T10:02:27;17.70;;;6.90;;
77012;SDS011;67260;53.130;17.982;2023-11-21T10:07:58;12.80;;;6.60;;
77012;SDS011;67260;53.130;17.982;2023-11-21T10:10:25;11.60;;;5.60;;
77012;SDS011;67260;53.130;17.982;2023-11-21T10:12:54;12.60;;;6.30;;
77012;SDS011;67260;53.130;17.982;2023-11-21T10:18:20;11.80;;;6.50;;
77012;SDS011;67260;53.130;17.982;2023-11-21T10:20:52;13.80;;;7.40;;
77012;SDS011;67260;53.130;17.982;2023-11-21T10:26:51;11.80;;;5.70;;
77012;SDS011;67260;53.130;17.982;2023-11-21T10:29:22;12.20;;;6.40;;
77012;SDS011;67260;53.130;17.982;2023-11-21T10:31:50;15.80;;;6.40;;
77012;SDS011;67260;53.130;17.982;2023-11-21T10:34:18;12.70;;;6.70;;
77012;SDS011;67260;53.130;17.982;2023-11-21T10:36:46;13.10;;;6.00;;
77012;SDS011;67260;53.130;17.982;2023-11-21T10:39:22;20.10;;;7.70;;
77012;SDS011;67260;53.130;17.982;2023-11-21T10:41:50;13.00;;;6.10;;
77012;SDS011;67260;53.130;17.982;2023-11-21T10:44:17;13.40;;;6.50;;
77012;SDS011;67260;53.130;17.982;2023-11-21T10:46:54;13.30;;;6.90;;
77012;SDS011;67260;53.130;17.982;2023-11-21T10:49:26;12.70;;;6.60;;
77012;SDS011;67260;53.130;17.982;2023-11-21T10:51:54;13.10;;;5.60;;
77012;SDS011;67260;53.130;17.982;2023-11-21T10:54:22;11.60;;;5.50;;
77012;SDS011;67260;53.130;17.982;2023-11-21T10:56:53;12.60;;;6.10;;
77012;SDS011;67260;53.130;17.982;2023-11-21T11:39:30;11.70;;;5.70;;
77012;SDS011;67260;53.130;17.982;2023-11-21T11:41:58;14.70;;;7.10;;
77012;SDS011;67260;53.130;17.982;2023-11-21T11:47:29;11.40;;;5.80;;
77012;SDS011;67260;53.130;17.982;2023-11-21T11:54:35;11.90;;;5.80;;
77012;SDS011;67260;53.130;17.982;2023-11-21T11:57:03;10.10;;;5.70;;
77012;SDS011;67260;53.130;17.982;2023-11-21T12:05:46;12.10;;;6.00;;
77012;SDS011;67260;53.130;17.982;2023-11-21T12:08:16;10.40;;;5.60;;
77012;SDS011;67260;53.130;17.982;2023-11-21T12:10:43;10.80;;;5.90;;
77012;SDS011;67260;53.130;17.982;2023-11-21T12:13:10;11.70;;;5.70;;
77012;SDS011;67260;53.130;17.982;2023-11-21T12:15:38;12.30;;;6.10;;
77012;SDS011;67260;53.130;17.982;2023-11-21T12:18:09;14.70;;;6.30;;
77012;SDS011;67260;53.130;17.982;2023-11-21T12:20:36;14.70;;;6.00;;
77012;SDS011;67260;53.130;17.982;2023-11-21T12:23:05;12.60;;;5.90;;
77012;SDS011;67260;53.130;17.982;2023-11-21T12:25:32;13.60;;;6.30;;
77012;SDS011;67260;53.130;17.982;2023-11-21T12:28:00;13.10;;;6.40;;
77012;SDS011;67260;53.130;17.982;2023-11-21T12:30:28;15.30;;;6.70;;
77012;SDS011;67260;53.130;17.982;2023-11-21T12:32:58;12.00;;;6.10;;
77012;SDS011;67260;53.130;17.982;2023-11-21T12:35:29;15.90;;;7.80;;
77012;SDS011;67260;53.130;17.982;2023-11-21T13:10:44;14.40;;;6.40;;
77012;SDS011;67260;53.130;17.982;2023-11-21T13:13:14;14.70;;;6.60;;
77012;SDS011;67260;53.130;17.982;2023-11-21T13:19:25;10.70;;;5.00;;
77012;SDS011;67260;53.130;17.982;2023-11-21T13:21:53;11.30;;;5.60;;
77012;SDS011;67260;53.130;17.982;2023-11-21T13:24:21;11.30;;;6.20;;
77012;SDS011;67260;53.130;17.982;2023-11-21T13:26:52;11.20;;;5.30;;
77012;SDS011;67260;53.130;17.982;2023-11-21T13:29:21;10.00;;;5.40;;
77012;SDS011;67260;53.130;17.982;2023-11-21T13:31:49;8.90;;;4.90;;
77012;SDS011;67260;53.130;17.982;2023-11-21T13:34:17;11.40;;;5.10;;
77012;SDS011;67260;53.130;17.982;2023-11-21T13:36:47;10.70;;;5.30;;
77012;SDS011;67260;53.130;17.982;2023-11-21T13:48:33;9.30;;;4.50;;
77012;SDS011;67260;53.130;17.982;2023-11-21T13:53:48;10.50;;;4.60;;
77012;SDS011;67260;53.130;17.982;2023-11-21T14:02:26;11.10;;;5.50;;
77012;SDS011;67260;53.130;17.982;2023-11-21T14:05:02;13.00;;;5.50;;
77012;SDS011;67260;53.130;17.982;2023-11-21T14:07:35;9.70;;;4.80;;
77012;SDS011;67260;53.130;17.982;2023-11-21T14:10:06;11.90;;;5.80;;
77012;SDS011;67260;53.130;17.982;2023-11-21T14:12:43;11.20;;;5.30;;
77012;SDS011;67260;53.130;17.982;2023-11-21T14:15:10;11.60;;;6.00;;
77012;SDS011;67260;53.130;17.982;2023-11-21T14:17:39;10.80;;;5.00;;
77012;SDS011;67260;53.130;17.982;2023-11-21T14:20:08;12.50;;;5.60;;
77012;SDS011;67260;53.130;17.982;2023-11-21T14:22:42;15.20;;;5.80;;
77012;SDS011;67260;53.130;17.982;2023-11-21T14:30:25;20.10;;;9.40;;
77012;SDS011;67260;53.130;17.982;2023-11-21T14:40:53;51.10;;;18.60;;
77012;SDS011;67260;53.130;17.982;2023-11-21T14:43:23;27.00;;;12.40;;
77012;SDS011;67260;53.130;17.982;2023-11-21T14:46:00;19.40;;;9.40;;
77012;SDS011;67260;53.130;17.982;2023-11-21T14:52:14;14.70;;;6.70;;
77012;SDS011;67260;53.130;17.982;2023-11-21T14:55:02;19.40;;;9.70;;
77012;SDS011;67260;53.130;17.982;2023-11-21T15:04:26;14.50;;;6.90;;
77012;SDS011;67260;53.130;17.982;2023-11-21T15:12:01;15.10;;;7.50;;
77012;SDS011;67260;53.130;17.982;2023-11-21T15:40:42;19.40;;;10.20;;
77012;SDS011;67260;53.130;17.982;2023-11-21T15:43:09;13.10;;;5.30;;
77012;SDS011;67260;53.130;17.982;2023-11-21T15:45:39;8.40;;;3.80;;
77012;SDS011;67260;53.130;17.982;2023-11-21T15:48:06;16.50;;;8.80;;
77012;SDS011;67260;53.130;17.982;2023-11-21T16:02:30;14.60;;;7.10;;
77012;SDS011;67260;53.130;17.982;2023-11-21T16:15:53;14.80;;;8.60;;
77012;SDS011;67260;53.130;17.982;2023-11-21T16:18:21;11.90;;;5.30;;
77012;SDS011;67260;53.130;17.982;2023-11-21T16:20:52;11.30;;;5.30;;
77012;SDS011;67260;53.130;17.982;2023-11-21T16:23:19;19.10;;;8.90;;
77012;SDS011;67260;53.130;17.982;2023-11-21T16:25:48;25.90;;;12.60;;
77012;SDS011;67260;53.130;17.982;2023-11-21T16:28:21;34.70;;;14.70;;
77012;SDS011;67260;53.130;17.982;2023-11-21T16:31:00;17.30;;;7.40;;
77012;SDS011;67260;53.130;17.982;2023-11-21T16:33:30;16.40;;;7.20;;
77012;SDS011;67260;53.130;17.982;2023-11-21T16:35:57;16.90;;;7.50;;
77012;SDS011;67260;53.130;17.982;2023-11-21T16:45:54;18.90;;;9.50;;
77012;SDS011;67260;53.130;17.982;2023-11-21T17:02:09;19.00;;;7.50;;
77012;SDS011;67260;53.130;17.982;2023-11-21T17:04:36;26.30;;;12.30;;
77012;SDS011;67260;53.130;17.982;2023-11-21T17:23:04;15.30;;;7.40;;
77012;SDS011;67260;53.130;17.982;2023-11-21T17:34:27;16.50;;;6.60;;
77012;SDS011;67260;53.130;17.982;2023-11-21T17:36:55;18.60;;;7.40;;
77012;SDS011;67260;53.130;17.982;2023-11-21T17:39:26;19.60;;;8.80;;
77012;SDS011;67260;53.130;17.982;2023-11-21T17:41:54;19.60;;;7.70;;
77012;SDS011;67260;53.130;17.982;2023-11-21T17:44:30;18.60;;;7.00;;
77012;SDS011;67260;53.130;17.982;2023-11-21T18:06:42;22.10;;;8.50;;
77012;SDS011;67260;53.130;17.982;2023-11-21T18:09:10;22.30;;;8.80;;
77012;SDS011;67260;53.130;17.982;2023-11-21T18:11:45;24.70;;;9.60;;
77012;SDS011;67260;53.130;17.982;2023-11-21T18:14:14;17.90;;;7.60;;
77012;SDS011;67260;53.130;17.982;2023-11-21T18:17:05;23.60;;;9.30;;
77012;SDS011;67260;53.130;17.982;2023-11-21T18:19:33;23.20;;;9.40;;
77012;SDS011;67260;53.130;17.982;2023-11-21T18:22:00;35.20;;;13.10;;
77012;SDS011;67260;53.130;17.982;2023-11-21T18:28:50;33.30;;;12.30;;
77012;SDS011;67260;53.130;17.982;2023-11-21T18:31:28;31.70;;;12.20;;
77012;SDS011;67260;53.130;17.982;2023-11-21T19:12:57;35.20;;;12.70;;
77012;SDS011;67260;53.130;17.982;2023-11-21T19:15:53;27.20;;;11.30;;
77012;SDS011;67260;53.130;17.982;2023-11-21T19:18:50;26.80;;;10.90;;
77012;SDS011;67260;53.130;17.982;2023-11-21T20:06:16;12.90;;;5.20;;
77012;SDS011;67260;53.130;17.982;2023-11-21T20:09:05;13.90;;;4.90;;
77012;SDS011;67260;53.130;17.982;2023-11-21T20:11:40;21.00;;;6.90;;
77012;SDS011;67260;53.130;17.982;2023-11-21T20:20:18;15.70;;;6.90;;
77012;SDS011;67260;53.130;17.982;2023-11-21T20:22:59;14.30;;;5.60;;
77012;SDS011;67260;53.130;17.982;2023-11-21T20:25:30;15.80;;;6.10;;
77012;SDS011;67260;53.130;17.982;2023-11-21T20:28:02;14.20;;;6.40;;
77012;SDS011;67260;53.130;17.982;2023-11-21T20:34:10;13.60;;;6.60;;
77012;SDS011;67260;53.130;17.982;2023-11-21T20:36:40;12.20;;;5.50;;
77012;SDS011;67260;53.130;17.982;2023-11-21T20:39:15;13.60;;;5.20;;
77012;SDS011;67260;53.130;17.982;2023-11-21T20:41:58;14.60;;;6.30;;
77012;SDS011;67260;53.130;17.982;2023-11-21T20:46:52;11.80;;;4.50;;
77012;SDS011;67260;53.130;17.982;2023-11-21T20:49:20;13.50;;;4.90;;
77012;SDS011;67260;53.130;17.982;2023-11-21T20:51:47;12.10;;;4.90;;
77012;SDS011;67260;53.130;17.982;2023-11-21T20:56:40;9.60;;;4.60;;
77012;SDS011;67260;53.130;17.982;2023-11-21T20:59:07;20.70;;;8.90;;
77012;SDS011;67260;53.130;17.982;2023-11-21T21:04:32;11.90;;;4.80;;
77012;SDS011;67260;53.130;17.982;2023-11-21T21:06:59;15.10;;;5.80;;
77012;SDS011;67260;53.130;17.982;2023-11-21T21:13:04;11.10;;;5.30;;
77012;SDS011;67260;53.130;17.982;2023-11-21T21:15:30;16.30;;;5.70;;
77012;SDS011;67260;53.130;17.982;2023-11-21T21:17:58;14.50;;;5.90;;
77012;SDS011;67260;53.130;17.982;2023-11-21T21:20:25;10.00;;;4.80;;
77012;SDS011;67260;53.130;17.982;2023-11-21T21:25:48;11.80;;;5.00;;
77012;SDS011;67260;53.130;17.982;2023-11-21T21:28:15;10.20;;;4.90;;
77012;SDS011;67260;53.130;17.982;2023-11-21T21:30:42;11.00;;;4.90;;
77012;SDS011;67260;53.130;17.982;2023-11-21T21:35:54;13.10;;;5.20;;
77012;SDS011;67260;53.130;17.982;2023-11-21T21:38:21;15.00;;;5.40;;
77012;SDS011;67260;53.130;17.982;2023-11-21T21:40:48;11.80;;;4.90;;
77012;SDS011;67260;53.130;17.982;2023-11-21T21:52:18;12.30;;;4.80;;
77012;SDS011;67260;53.130;17.982;2023-11-21T21:54:56;11.40;;;4.90;;
77012;SDS011;67260;53.130;17.982;2023-11-21T22:05:24;12.40;;;5.20;;
77012;SDS011;67260;53.130;17.982;2023-11-21T22:17:43;15.50;;;5.60;;
77012;SDS011;67260;53.130;17.982;2023-11-21T22:20:13;15.40;;;5.10;;
77012;SDS011;67260;53.130;17.982;2023-11-21T22:25:51;12.20;;;5.00;;
77012;SDS011;67260;53.130;17.982;2023-11-21T22:28:28;12.80;;;4.90;;
77012;SDS011;67260;53.130;17.982;2023-11-21T22:30:55;11.40;;;4.20;;
77012;SDS011;67260;53.130;17.982;2023-11-21T22:33:22;13.00;;;5.20;;
77012;SDS011;67260;53.130;17.982;2023-11-21T22:35:50;12.50;;;5.50;;
77012;SDS011;67260;53.130;17.982;2023-11-21T22:38:19;14.10;;;5.70;;
77012;SDS011;67260;53.130;17.982;2023-11-21T22:40:49;13.50;;;5.90;;
77012;SDS011;67260;53.130;17.982;2023-11-21T22:46:56;13.00;;;5.20;;
77012;SDS011;67260;53.130;17.982;2023-11-21T22:50:17;12.90;;;5.80;;
77012;SDS011;67260;53.130;17.982;2023-11-21T22:52:46;11.90;;;5.50;;
77012;SDS011;67260;53.130;17.982;2023-11-21T23:11:48;10.90;;;4.90;;
77012;SDS011;67260;53.130;17.982;2023-11-21T23:20:21;13.20;;;5.30;;
77012;SDS011;67260;53.130;17.982;2023-11-21T23:22:48;13.40;;;5.20;;
77012;SDS011;67260;53.130;17.982;2023-11-21T23:32:47;12.50;;;5.40;;
77012;SDS011;67260;53.130;17.982;2023-11-21T23:35:14;13.30;;;5.40;;
77012;SDS011;67260;53.130;17.982;2023-11-21T23:40:33;12.00;;;5.20;;
77012;SDS011;67260;53.130;17.982;2023-11-21T23:43:01;12.90;;;5.50;;
77012;SDS011;67260;53.130;17.982;2023-11-21T23:46:15;12.00;;;5.00;;
77012;SDS011;67260;53.130;17.982;2023-11-21T23:48:42;12.80;;;5.40;;
77012;SDS011;67260;53.130;17.982;2023-11-21T23:59:54;12.80;;;5.40;;
